createdAt,value
2023-03-06T00:01:01.886Z,99527.88
2023-03-06T00:04:03.663Z,99530.44
2023-03-06T00:07:05.560Z,99567.59
2023-03-06T00:10:08.067Z,99558.94
2023-03-06T00:13:13.091Z,99567.59
2023-03-06T00:16:15.050Z,99564.13
2023-03-06T00:19:16.968Z,99535.63
2023-03-06T00:22:18.922Z,99560.66
2023-03-06T00:25:21.819Z,99571.03
2023-03-06T00:28:23.876Z,99570.19
2023-03-06T00:31:25.679Z,99559.81
2023-03-06T00:34:27.660Z,99562.44
2023-03-06T00:37:29.449Z,99523.56
2023-03-06T00:40:31.391Z,99555.47
2023-03-06T00:43:34.504Z,99547.72
2023-03-06T00:46:36.260Z,99529.63
2023-03-06T00:49:38.219Z,99552.03
2023-03-06T00:52:42.027Z,99553.75
2023-03-06T00:55:47.638Z,99544.25
2023-03-06T00:58:49.382Z,99531.25
2023-03-06T01:01:51.595Z,99523.53
2023-03-06T01:04:53.416Z,99532.16
2023-03-06T01:07:55.180Z,99539.88
2023-03-06T01:10:57.038Z,99542.47
2023-03-06T01:13:58.792Z,99537.34
2023-03-06T01:17:00.549Z,99539.91
2023-03-06T01:20:02.286Z,99530.44
2023-03-06T01:23:04.194Z,99552.91
2023-03-06T01:26:06.305Z,99486.41
2023-03-06T01:29:08.216Z,99539.13
2023-03-06T01:32:09.926Z,99536.50
2023-03-06T01:35:12.363Z,99533.03
2023-03-06T01:38:14.400Z,99531.38
2023-03-06T01:41:16.605Z,99531.34
2023-03-06T01:44:18.359Z,99530.50
2023-03-06T01:47:21.980Z,99533.94
2023-03-06T01:50:23.910Z,99518.38
2023-03-06T01:53:25.738Z,99532.19
2023-03-06T01:56:28.818Z,99527.91
2023-03-06T01:59:31.222Z,99532.19
2023-03-06T02:02:33.174Z,99518.34
2023-03-06T02:05:37.193Z,99508.81
2023-03-06T02:08:39.724Z,99522.69
2023-03-06T02:11:44.151Z,99445.91
2023-03-06T02:14:47.037Z,99503.72
2023-03-06T02:17:50.937Z,99512.34
2023-03-06T02:20:56.894Z,99491.63
2023-03-06T02:24:23.489Z,99519.22
2023-03-06T02:27:26.913Z,99509.75
2023-03-06T02:30:31.206Z,99520.09
2023-03-06T02:33:33.404Z,99506.31
2023-03-06T02:36:40.782Z,99521.81
2023-03-06T02:39:48.601Z,99518.38
2023-03-06T02:42:56.979Z,99488.16
2023-03-06T02:45:58.794Z,99512.34
2023-03-06T02:49:01.001Z,99514.94
2023-03-06T02:52:02.869Z,99458.88
2023-03-06T02:55:05.071Z,99507.19
2023-03-06T02:58:06.893Z,99511.50
2023-03-06T03:01:09.639Z,99508.91
2023-03-06T03:04:12.691Z,99515.81
2023-03-06T03:07:14.542Z,99494.25
2023-03-06T03:10:17.560Z,99512.38
2023-03-06T03:13:20.137Z,99504.59
2023-03-06T03:16:23.173Z,99514.13
2023-03-06T03:19:24.917Z,99498.56
2023-03-06T03:22:26.792Z,99499.47
2023-03-06T03:25:28.515Z,99498.59
2023-03-06T03:28:32.548Z,99501.19
2023-03-06T03:31:34.832Z,99502.09
2023-03-06T03:34:37.731Z,99479.69
2023-03-06T03:37:40.386Z,99511.63
2023-03-06T03:40:43.460Z,99502.13
2023-03-06T03:43:45.474Z,99497.78
2023-03-06T03:46:47.342Z,99497.81
2023-03-06T03:49:54.527Z,99492.63
2023-03-06T03:52:56.360Z,99496.91
2023-03-06T03:55:58.294Z,99498.66
2023-03-06T03:59:00.153Z,99477.06
2023-03-06T04:02:07.184Z,99467.53
2023-03-06T04:05:15.996Z,99500.34
2023-03-06T04:08:17.848Z,99491.72
2023-03-06T04:11:21.376Z,99489.97
2023-03-06T04:14:23.332Z,99490.88
2023-03-06T04:17:25.807Z,99472.72
2023-03-06T04:20:29.237Z,99495.16
2023-03-06T04:23:33.666Z,99501.25
2023-03-06T04:26:36.196Z,99470.16
2023-03-06T04:29:38.646Z,99509.03
2023-03-06T04:32:40.645Z,99499.50
2023-03-06T04:35:42.721Z,99503.03
2023-03-06T04:38:49.486Z,99492.66
2023-03-06T04:41:51.430Z,99501.31
2023-03-06T04:44:53.124Z,99500.47
2023-03-06T04:47:55.187Z,99490.16
2023-03-06T04:50:56.943Z,99483.31
2023-03-06T04:53:59.453Z,99479.88
2023-03-06T04:57:01.246Z,99497.16
2023-03-06T05:00:08.253Z,99503.22
2023-03-06T05:03:12.323Z,99501.50
2023-03-06T05:06:14.027Z,99515.38
2023-03-06T05:09:15.812Z,99524.84
2023-03-06T05:12:17.724Z,99524.88
2023-03-06T05:15:20.669Z,99469.59
2023-03-06T05:18:22.536Z,99524.88
2023-03-06T05:21:24.276Z,99527.47
2023-03-06T05:24:26.081Z,99517.09
2023-03-06T05:27:28.683Z,99527.44
2023-03-06T05:30:30.506Z,99496.34
2023-03-06T05:33:33.562Z,99538.69
2023-03-06T05:36:35.478Z,99536.97
2023-03-06T05:39:37.271Z,99545.56
2023-03-06T05:42:39.505Z,99510.16
2023-03-06T05:45:41.475Z,99533.50
2023-03-06T05:48:44.192Z,99552.47
2023-03-06T05:51:47.098Z,99556.75
2023-03-06T05:54:53.702Z,99555.88
2023-03-06T05:57:55.560Z,99555.03
2023-03-06T06:00:57.481Z,99567.13
2023-03-06T06:03:59.296Z,99535.13
2023-03-06T06:07:01.823Z,99543.75
2023-03-06T06:10:05.395Z,99560.16
2023-03-06T06:13:07.397Z,99554.94
2023-03-06T06:16:15.858Z,99554.91
2023-03-06T06:19:20.923Z,99536.78
2023-03-06T06:22:22.777Z,99517.72
2023-03-06T06:25:24.588Z,99528.91
2023-03-06T06:28:27.371Z,99554.78
2023-03-06T06:31:29.200Z,99528.91
2023-03-06T06:34:31.996Z,99526.31
2023-03-06T06:37:34.263Z,99559.94
2023-03-06T06:40:36.061Z,99546.13
2023-03-06T06:43:37.961Z,99557.34
2023-03-06T06:50:01.823Z,99580.66
2023-03-06T06:53:03.547Z,99565.13
2023-03-06T06:56:05.693Z,99593.63
2023-03-06T06:59:16.629Z,99597.88
2023-03-06T07:02:19.203Z,99584.94
2023-03-06T07:05:22.100Z,99603.94
2023-03-06T07:08:23.996Z,99620.44
2023-03-06T07:11:27.219Z,99601.38
2023-03-06T07:14:28.991Z,99601.41
2023-03-06T07:17:30.850Z,99566.91
2023-03-06T07:20:32.761Z,99584.16
2023-03-06T07:23:34.667Z,99597.97
2023-03-06T07:26:36.896Z,99605.66
2023-03-06T07:29:38.970Z,99607.38
2023-03-06T07:32:40.816Z,99593.56
2023-03-06T07:35:43.271Z,99606.50
2023-03-06T07:38:45.262Z,99573.72
2023-03-06T07:41:47.584Z,99559.78
2023-03-06T07:44:49.448Z,99580.41
2023-03-06T07:47:51.673Z,99623.53
2023-03-06T07:51:02.143Z,99624.50
2023-03-06T07:54:03.968Z,99619.25
2023-03-06T07:57:05.852Z,99607.03
2023-03-06T08:00:14.418Z,99621.66
2023-03-06T08:03:17.626Z,99619.06
2023-03-06T08:06:25.205Z,99643.22
2023-03-06T08:09:26.960Z,99638.84
2023-03-06T08:12:28.960Z,99611.97
2023-03-06T08:15:30.667Z,99603.25
2023-03-06T08:18:32.503Z,99620.38
2023-03-06T08:21:34.577Z,99616.91
2023-03-06T08:24:36.494Z,99646.22
2023-03-06T08:27:38.385Z,99616.66
2023-03-06T08:30:40.529Z,99651.09
2023-03-06T08:33:42.861Z,99638.59
2023-03-06T08:36:45.175Z,99639.19
2023-03-06T08:39:47.031Z,99603.81
2023-03-06T08:42:49.021Z,99649.53
2023-03-06T08:45:55.541Z,99632.03
2023-03-06T08:48:58.421Z,99642.97
2023-03-06T08:52:00.961Z,99621.16
2023-03-06T08:55:03.736Z,99630.31
2023-03-06T08:58:06.008Z,99630.38
2023-03-06T09:01:23.276Z,99637.47
2023-03-06T09:04:25.139Z,99635.06
2023-03-06T09:07:28.068Z,99629.22
2023-03-06T09:10:29.934Z,99638.75
2023-03-06T09:13:31.653Z,99609.31
2023-03-06T09:16:33.845Z,99634.16
2023-03-06T09:19:35.653Z,99640.97
2023-03-06T09:22:37.828Z,99651.09
2023-03-06T09:25:39.553Z,99652.63
2023-03-06T09:28:41.479Z,99649.84
2023-03-06T09:31:43.768Z,99645.38
2023-03-06T09:34:45.548Z,99639.91
2023-03-06T09:37:47.269Z,99644.06
2023-03-06T09:40:57.919Z,99657.63
2023-03-06T09:44:14.463Z,99646.34
2023-03-06T09:47:45.290Z,99646.41
2023-03-06T09:51:05.946Z,99647.44
2023-03-06T09:54:13.669Z,99647.53
2023-03-06T09:57:35.704Z,99652.47
2023-03-06T10:00:46.379Z,99653.38
2023-03-06T10:04:08.969Z,99653.22
2023-03-06T10:07:18.713Z,99623.75
2023-03-06T10:10:24.743Z,99649.50
2023-03-06T10:13:31.999Z,99635.19
2023-03-06T10:16:33.962Z,99644.50
2023-03-06T10:19:40.148Z,99606.50
2023-03-06T10:23:00.661Z,99631.66
2023-03-06T10:26:16.066Z,99612.59
2023-03-06T10:29:29.708Z,99622.69
2023-03-06T10:32:49.295Z,99609.03
2023-03-06T10:35:54.195Z,99605.59
2023-03-06T10:38:58.255Z,99613.38
2023-03-06T10:42:00.031Z,99593.72
2023-03-06T10:45:12.555Z,99600.50
2023-03-06T10:48:19.813Z,99585.91
2023-03-06T10:51:26.117Z,99595.56
2023-03-06T10:54:30.402Z,99592.00
2023-03-06T10:57:32.525Z,99560.25
2023-03-06T11:00:38.386Z,99571.03
2023-03-06T11:03:41.176Z,99578.53
2023-03-06T11:06:42.996Z,99565.47
2023-03-06T11:09:59.570Z,99570.59
2023-03-06T11:13:23.061Z,99562.81
2023-03-06T11:16:30.501Z,99560.03
2023-03-06T11:19:33.370Z,99562.25
2023-03-06T11:22:38.861Z,99555.97
2023-03-06T11:26:07.546Z,99535.19
2023-03-06T11:29:15.344Z,99552.41
2023-03-06T11:32:29.437Z,99548.28
2023-03-06T11:35:39.636Z,99544.63
2023-03-06T11:38:49.088Z,99544.91
2023-03-06T11:42:22.025Z,99511.84
2023-03-06T11:45:57.075Z,99536.84
2023-03-06T11:49:13.680Z,99517.94
2023-03-06T11:52:22.925Z,99522.09
2023-03-06T11:55:30.320Z,99510.81
2023-03-06T11:58:40.958Z,99511.28
2023-03-06T12:01:45.699Z,99506.91
2023-03-06T12:05:13.235Z,99498.94
2023-03-06T12:08:41.226Z,99506.91
2023-03-06T12:11:53.283Z,99485.22
2023-03-06T12:15:14.118Z,99502.22
2023-03-06T12:18:24.570Z,99502.97
2023-03-06T12:21:54.707Z,99499.75
2023-03-06T12:25:16.930Z,99504.41
2023-03-06T12:28:24.654Z,99506.47
2023-03-06T12:31:31.468Z,99510.94
2023-03-06T12:34:33.235Z,99509.31
2023-03-06T12:37:52.382Z,99510.31
2023-03-06T12:40:57.299Z,99495.63
2023-03-06T12:44:17.503Z,99494.81
2023-03-06T12:47:23.786Z,99509.84
2023-03-06T12:50:27.570Z,99464.34
2023-03-06T12:53:34.184Z,99502.34
2023-03-06T12:56:36.031Z,99501.53
2023-03-06T12:59:48.091Z,99497.22
2023-03-06T13:03:21.193Z,99496.97
2023-03-06T13:06:49.724Z,99500.81
2023-03-06T13:10:16.117Z,99498.56
2023-03-06T13:13:35.981Z,99505.44
2023-03-06T13:16:37.733Z,99506.59
2023-03-06T13:19:39.565Z,99505.28
2023-03-06T13:22:43.686Z,99509.09
2023-03-06T13:25:50.562Z,99488.69
2023-03-06T13:28:54.054Z,99493.16
2023-03-06T13:32:07.492Z,99497.91
2023-03-06T13:35:32.279Z,99497.44
2023-03-06T13:39:01.101Z,99503.78
2023-03-06T13:42:07.186Z,99495.19
2023-03-06T13:45:25.213Z,99504.88
2023-03-06T13:48:44.637Z,99491.97
2023-03-06T13:51:53.147Z,99484.94
2023-03-06T13:55:33.221Z,99492.81
2023-03-06T13:58:53.577Z,99502.53
2023-03-06T14:02:15.655Z,99499.25
2023-03-06T14:05:18.629Z,99483.75
2023-03-06T14:08:27.219Z,99483.75
2023-03-06T14:11:29.804Z,99481.34
2023-03-06T14:14:50.125Z,99456.53
2023-03-06T14:18:01.740Z,99491.06
2023-03-06T14:21:11.898Z,99460.25
2023-03-06T14:24:19.260Z,99468.03
2023-03-06T14:27:21.384Z,99491.34
2023-03-06T14:30:26.279Z,99501.75
2023-03-06T14:33:57.304Z,99498.28
2023-03-06T14:37:02.972Z,99488.88
2023-03-06T14:40:11.398Z,99497.59
2023-03-06T14:43:22.671Z,99465.81
2023-03-06T14:46:24.490Z,99477.91
2023-03-06T14:49:26.931Z,99487.56
2023-03-06T14:56:01.168Z,99454.00
2023-03-06T14:59:06.078Z,99487.66
2023-03-06T15:02:11.542Z,99480.72
2023-03-06T15:05:27.827Z,99479.03
2023-03-06T15:08:34.615Z,99466.97
2023-03-06T15:12:09.737Z,99469.53
2023-03-06T15:15:11.802Z,99474.72
2023-03-06T15:18:56.500Z,99460.97
2023-03-06T15:21:58.359Z,99470.38
2023-03-06T15:25:26.752Z,99478.19
2023-03-06T15:28:37.295Z,99473.09
2023-03-06T15:31:45.620Z,99474.88
2023-03-06T15:34:48.563Z,99481.97
2023-03-06T15:37:51.256Z,99472.53
2023-03-06T15:41:01.126Z,99475.09
2023-03-06T15:44:11.121Z,99480.34
2023-03-06T15:47:12.876Z,99474.47
2023-03-06T15:50:17.859Z,99482.31
2023-03-06T15:53:20.419Z,99473.72
2023-03-06T15:56:29.638Z,99458.31
2023-03-06T15:59:34.468Z,99479.13
2023-03-06T16:02:36.224Z,99479.13
2023-03-06T16:05:38.680Z,99481.72
2023-03-06T16:08:40.470Z,99475.69
2023-03-06T16:11:44.875Z,99476.56
2023-03-06T16:14:48.092Z,99468.81
2023-03-06T16:17:49.927Z,99448.16
2023-03-06T16:20:51.736Z,99444.78
2023-03-06T16:23:53.544Z,99438.75
2023-03-06T16:26:55.729Z,99472.31
2023-03-06T16:29:57.594Z,99424.16
2023-03-06T16:32:59.685Z,99469.00
2023-03-06T16:36:02.532Z,99462.16
2023-03-06T16:39:04.679Z,99455.31
2023-03-06T16:42:06.576Z,99426.06
2023-03-06T16:45:08.884Z,99458.78
2023-03-06T16:48:15.192Z,99471.69
2023-03-06T16:51:19.623Z,99465.63
2023-03-06T16:54:24.287Z,99469.06
2023-03-06T16:57:35.755Z,99461.25
2023-03-06T17:00:38.342Z,99456.03
2023-03-06T17:03:40.230Z,99465.63
2023-03-06T17:06:43.185Z,99449.22
2023-03-06T17:09:45.029Z,99460.50
2023-03-06T17:12:47.023Z,99458.88
2023-03-06T17:15:56.996Z,99444.22
2023-03-06T17:18:59.960Z,99438.94
2023-03-06T17:22:01.817Z,99436.44
2023-03-06T17:25:06.862Z,99443.31
2023-03-06T17:28:08.940Z,99449.38
2023-03-06T17:31:16.614Z,99440.84
2023-03-06T17:34:18.498Z,99436.44
2023-03-06T17:37:20.857Z,99426.91
2023-03-06T17:40:22.670Z,99418.44
2023-03-06T17:43:24.545Z,99433.94
2023-03-06T17:46:26.542Z,99430.56
2023-03-06T17:49:28.585Z,99433.22
2023-03-06T17:52:30.709Z,99450.63
2023-03-06T17:55:32.559Z,99450.66
2023-03-06T17:58:35.852Z,99424.78
2023-03-06T18:01:38.012Z,99411.03
2023-03-06T18:04:40.409Z,99429.09
2023-03-06T18:07:42.100Z,99429.94
2023-03-06T18:10:43.820Z,99407.66
2023-03-06T18:13:46.526Z,99407.69
2023-03-06T18:16:48.442Z,99412.94
2023-03-06T18:19:51.439Z,99420.75
2023-03-06T18:22:53.176Z,99413.88
2023-03-06T18:26:31.735Z,99412.09
2023-03-06T18:29:33.547Z,99401.75
2023-03-06T18:32:48.983Z,99408.59
2023-03-06T18:36:03.548Z,99421.59
2023-03-06T18:39:08.913Z,99372.41
2023-03-06T18:42:10.755Z,99392.34
2023-03-06T18:45:12.964Z,99367.25
2023-03-06T18:48:14.717Z,99377.59
2023-03-06T18:51:16.842Z,99398.31
2023-03-06T18:54:18.714Z,99381.00
2023-03-06T18:57:20.666Z,99369.84
2023-03-06T19:00:22.751Z,99380.94
2023-03-06T19:03:24.943Z,99362.00
2023-03-06T19:06:27.937Z,99377.53
2023-03-06T19:09:29.810Z,99395.78
2023-03-06T19:12:32.976Z,99397.53
2023-03-06T19:15:35.280Z,99387.09
2023-03-06T19:18:37.050Z,99377.59
2023-03-06T19:21:38.941Z,99366.41
2023-03-06T19:24:40.757Z,99368.94
2023-03-06T19:27:44.920Z,99380.22
2023-03-06T19:30:46.673Z,99379.47
2023-03-06T19:33:49.734Z,99395.03
2023-03-06T19:36:51.697Z,99398.53
2023-03-06T19:39:53.630Z,99395.81
2023-03-06T19:42:55.745Z,99376.03
2023-03-06T19:46:01.040Z,99397.53
2023-03-06T19:49:09.987Z,99385.56
2023-03-06T19:52:11.759Z,99390.81
2023-03-06T19:55:13.568Z,99373.66
2023-03-06T19:58:15.366Z,99408.16
2023-03-06T20:01:19.630Z,99395.22
2023-03-06T20:04:21.701Z,99409.00
2023-03-06T20:07:23.813Z,99416.81
2023-03-06T20:10:25.582Z,99392.69
2023-03-06T20:13:27.800Z,99409.94
2023-03-06T20:16:30.702Z,99411.66
2023-03-06T20:19:32.597Z,99418.56
2023-03-06T20:22:34.434Z,99423.78
2023-03-06T20:25:36.900Z,99417.75
2023-03-06T20:28:39.674Z,99397.06
2023-03-06T20:31:41.998Z,99405.69
2023-03-06T20:34:44.570Z,99401.41
2023-03-06T20:37:46.283Z,99399.66
2023-03-06T20:40:48.091Z,99402.28
2023-03-06T20:43:50.247Z,99388.50
2023-03-06T20:46:52.159Z,99392.84
2023-03-06T20:49:54.038Z,99388.53
2023-03-06T20:52:56.928Z,99365.25
2023-03-06T20:55:58.611Z,99373.88
2023-03-06T20:59:00.337Z,99349.69
2023-03-06T21:02:02.214Z,99350.53
2023-03-06T21:05:04.199Z,99339.31
2023-03-06T21:08:07.259Z,99337.53
2023-03-06T21:11:08.999Z,99319.41
2023-03-06T21:14:12.400Z,99326.28
2023-03-06T21:17:14.125Z,99318.50
2023-03-06T21:20:15.979Z,99312.38
2023-03-06T21:23:17.748Z,99317.53
2023-03-06T21:26:21.922Z,99300.47
2023-03-06T21:29:23.668Z,99323.84
2023-03-06T21:32:25.519Z,99322.16
2023-03-06T21:35:27.733Z,99313.53
2023-03-06T21:38:30.079Z,99310.03
2023-03-06T21:41:32.457Z,99308.25
2023-03-06T21:44:34.172Z,99296.19
2023-03-06T21:47:40.826Z,99301.38
2023-03-06T21:50:42.674Z,99297.91
2023-03-06T21:53:45.886Z,99291.88
2023-03-06T21:56:48.066Z,99295.28
2023-03-06T21:59:49.795Z,99278.75
2023-03-06T22:02:52.579Z,99277.00
2023-03-06T22:05:54.872Z,99283.81
2023-03-06T22:08:57.842Z,99283.81
2023-03-06T22:11:59.680Z,99280.34
2023-03-06T22:15:01.524Z,99256.22
2023-03-06T22:18:03.299Z,99281.25
2023-03-06T22:21:10.547Z,99262.34
2023-03-06T22:24:12.327Z,99282.16
2023-03-06T22:27:14.774Z,99287.38
2023-03-06T22:30:17.853Z,99271.88
2023-03-06T22:33:19.580Z,99254.72
2023-03-06T22:36:25.188Z,99276.25
2023-03-06T22:39:27.185Z,99299.59
2023-03-06T22:42:28.954Z,99304.88
2023-03-06T22:45:34.758Z,99314.38
2023-03-06T22:48:36.920Z,99304.88
2023-03-06T22:51:39.652Z,99303.16
2023-03-06T22:54:41.332Z,99278.97
2023-03-06T22:57:44.049Z,99285.91
2023-03-06T23:00:45.709Z,99291.09
2023-03-06T23:03:50.767Z,99291.97
2023-03-06T23:06:52.465Z,99297.97
2023-03-06T23:09:54.279Z,99296.19
2023-03-06T23:13:15.065Z,99287.50
2023-03-06T23:16:35.542Z,99278.75
2023-03-06T23:19:56.004Z,99281.31
2023-03-06T23:23:16.174Z,99289.09
2023-03-06T23:26:19.856Z,99287.31
2023-03-06T23:29:21.574Z,99292.47
2023-03-06T23:32:23.369Z,99293.31
2023-03-06T23:35:25.462Z,99287.25
2023-03-06T23:38:29.143Z,99287.28
2023-03-06T23:41:31.030Z,99289.00
2023-03-06T23:44:35.611Z,99272.59
2023-03-06T23:47:37.362Z,99272.63
2023-03-06T23:50:41.155Z,99280.47
2023-03-06T23:53:46.695Z,99289.09
2023-03-06T23:56:48.495Z,99266.63
2023-03-06T23:59:50.202Z,99278.72
